Time;durP1;ratioP1;P1;durP2;ratioP2;P2;SDS_P1;SDS_P2;PMS_P1;PMS_P2;Temp;Humidity;BMP_temperature;BMP_pressure;BME280_temperature;BME280_humidity;BME280_pressure;Samples;Min_cycle;Max_cycle;Signal;HPM_P1;HPM_P2
2022/09/29 00:02:23;;;;;;;0.70;0.70;;;5.70;99.90;;;;;;5095090;28;20213;-72
2022/09/29 00:04:48;;;;;;;0.80;0.80;;;5.70;99.90;;;;;;5095142;28;20177;-72
2022/09/29 00:07:14;;;;;;;0.70;0.70;;;5.80;99.90;;;;;;5095068;28;20281;-72
2022/09/29 00:09:39;;;;;;;0.80;0.80;;;5.80;99.90;;;;;;5094055;28;20829;-72
2022/09/29 00:12:05;;;;;;;0.70;0.70;;;5.90;99.90;;;;;;5094955;28;20581;-71
2022/09/29 00:14:30;;;;;;;0.80;0.80;;;5.90;99.90;;;;;;5094999;28;20252;-71
2022/09/29 00:16:56;;;;;;;0.70;0.70;;;5.90;99.90;;;;;;5095071;28;20178;-72
2022/09/29 00:19:22;;;;;;;0.60;0.60;;;5.90;99.90;;;;;;5094382;28;20189;-73
2022/09/29 00:21:47;;;;;;;0.70;0.70;;;6.00;99.90;;;;;;5094738;28;20214;-72
2022/09/29 00:24:13;;;;;;;0.60;0.60;;;6.00;99.90;;;;;;5094587;28;20166;-72
2022/09/29 00:26:38;;;;;;;0.80;0.80;;;6.00;99.90;;;;;;5094647;28;20190;-72
2022/09/29 00:29:04;;;;;;;0.67;0.67;;;5.90;99.90;;;;;;5094361;28;20219;-72
2022/09/29 00:31:31;;;;;;;0.70;0.70;;;5.90;99.90;;;;;;5094731;28;20174;-74
2022/09/29 00:33:57;;;;;;;0.60;0.60;;;5.90;99.90;;;;;;5094738;28;20250;-72
2022/09/29 00:36:23;;;;;;;0.60;0.60;;;5.90;99.90;;;;;;5094890;28;20178;-72
2022/09/29 00:38:51;;;;;;;0.60;0.60;;;6.00;99.90;;;;;;5093977;28;20193;-72
2022/09/29 00:41:23;;;;;;;0.60;0.60;;;5.80;99.90;;;;;;5094766;28;20216;-72
2022/09/29 00:43:56;;;;;;;0.70;0.70;;;5.90;99.90;;;;;;5094635;28;20174;-72
2022/09/29 00:46:28;;;;;;;0.70;0.70;;;5.90;99.90;;;;;;5094509;28;20188;-72
2022/09/29 00:48:58;;;;;;;0.70;0.70;;;5.90;99.90;;;;;;5093738;28;20194;-72
2022/09/29 00:51:26;;;;;;;0.70;0.70;;;6.00;99.90;;;;;;5094151;28;20523;-72
2022/09/29 00:53:52;;;;;;;0.60;0.60;;;5.90;99.90;;;;;;5094507;28;20181;-72
2022/09/29 00:56:19;;;;;;;0.80;0.80;;;6.00;99.90;;;;;;5094126;28;20661;-72
2022/09/29 00:58:55;;;;;;;0.70;0.70;;;5.90;99.90;;;;;;5093599;28;20190;-72
2022/09/29 01:01:22;;;;;;;0.70;0.70;;;6.00;99.90;;;;;;5093992;28;20205;-72
2022/09/29 01:03:51;;;;;;;0.70;0.70;;;5.90;99.90;;;;;;5093940;28;20687;-72
2022/09/29 01:06:20;;;;;;;0.70;0.70;;;6.00;99.90;;;;;;5094100;28;20579;-72
2022/09/29 01:09:00;;;;;;;0.77;0.77;;;6.10;99.90;;;;;;5093448;28;20190;-72
2022/09/29 01:11:26;;;;;;;0.63;0.63;;;6.10;99.90;;;;;;5093958;28;20196;-72
2022/09/29 01:13:54;;;;;;;0.80;0.80;;;6.20;99.90;;;;;;5093595;28;20189;-72
2022/09/29 01:16:20;;;;;;;0.80;0.80;;;6.20;99.90;;;;;;5093677;28;20185;-72
2022/09/29 01:18:46;;;;;;;0.70;0.70;;;6.30;99.90;;;;;;5093556;28;20190;-72
2022/09/29 01:21:40;;;;;;;0.60;0.60;;;6.30;99.90;;;;;;5093751;28;20217;-72
2022/09/29 01:24:28;;;;;;;0.67;0.67;;;6.30;99.90;;;;;;5093754;28;20189;-72
2022/09/29 01:27:35;;;;;;;0.70;0.70;;;6.30;99.90;;;;;;5199179;22;20217;-82
2022/09/29 01:30:42;;;;;;;0.67;0.67;;;6.10;99.90;;;;;;5076364;28;20170;-82
2022/09/29 01:33:20;;;;;;;0.70;0.70;;;6.20;99.90;;;;;;5043388;28;20243;-81
2022/09/29 01:36:39;;;;;;;0.80;0.80;;;6.20;99.90;;;;;;5082172;28;20276;-82
2022/09/29 01:39:31;;;;;;;0.70;0.70;;;6.30;99.90;;;;;;4994128;28;20232;-82
2022/09/29 01:42:14;;;;;;;0.73;0.73;;;6.30;99.90;;;;;;5083055;28;20237;-80
2022/09/29 01:44:47;;;;;;;0.80;0.80;;;6.40;99.90;;;;;;5082284;28;20201;-79
2022/09/29 01:47:21;;;;;;;0.70;0.70;;;6.30;99.90;;;;;;5083635;28;20185;-81
2022/09/29 01:49:54;;;;;;;0.70;0.70;;;6.30;99.90;;;;;;5080364;28;20205;-80
2022/09/29 01:52:23;;;;;;;0.60;0.60;;;6.30;99.90;;;;;;5081456;28;20182;-79
2022/09/29 01:54:58;;;;;;;0.80;0.80;;;6.30;99.90;;;;;;5080975;28;20183;-81
2022/09/29 01:57:38;;;;;;;0.60;0.60;;;6.40;99.90;;;;;;5082890;28;20223;-82
2022/09/29 02:00:10;;;;;;;0.70;0.70;;;6.30;99.90;;;;;;5084530;28;20181;-80
2022/09/29 02:03:05;;;;;;;0.60;0.60;;;6.30;99.90;;;;;;5084826;28;20178;-81
2022/09/29 02:05:38;;;;;;;0.60;0.60;;;6.30;99.90;;;;;;5080424;28;20184;-82
2022/09/29 02:08:11;;;;;;;0.70;0.70;;;6.30;99.90;;;;;;5084007;28;20206;-80
2022/09/29 02:10:44;;;;;;;0.70;0.70;;;6.30;99.90;;;;;;5060886;28;20179;-80
2022/09/29 02:13:13;;;;;;;0.70;0.70;;;6.30;99.90;;;;;;5058273;28;20183;-81
2022/09/29 02:15:44;;;;;;;0.60;0.60;;;6.40;99.90;;;;;;5063525;28;20224;-81
2022/09/29 02:18:26;;;;;;;0.70;0.70;;;6.40;99.90;;;;;;5062600;28;20241;-80
2022/09/29 02:20:52;;;;;;;0.70;0.70;;;6.50;99.90;;;;;;5064351;28;20675;-81
2022/09/29 02:23:17;;;;;;;0.70;0.70;;;6.60;99.90;;;;;;5068344;28;20258;-81
2022/09/29 02:25:45;;;;;;;0.80;0.80;;;6.60;99.90;;;;;;5083280;28;20214;-81
2022/09/29 02:28:12;;;;;;;0.67;0.67;;;6.60;99.90;;;;;;5070924;28;20221;-82
2022/09/29 02:30:38;;;;;;;0.70;0.70;;;6.70;99.90;;;;;;5065022;28;20675;-82
2022/09/29 02:33:04;;;;;;;0.70;0.70;;;6.80;99.90;;;;;;5059614;28;20179;-82
2022/09/29 02:36:04;;;;;;;0.67;0.67;;;6.70;99.90;;;;;;5060714;28;20214;-81
2022/09/29 02:38:46;;;;;;;0.60;0.60;;;6.60;99.90;;;;;;5064394;28;20326;-80
2022/09/29 02:41:27;;;;;;;0.60;0.60;;;6.60;99.90;;;;;;5073780;28;20199;-81
2022/09/29 02:43:59;;;;;;;0.73;0.73;;;6.60;99.90;;;;;;5078421;28;20156;-80
2022/09/29 02:46:53;;;;;;;0.70;0.70;;;6.50;99.90;;;;;;5077759;28;20186;-79
2022/09/29 02:49:31;;;;;;;0.70;0.70;;;6.50;99.90;;;;;;5074446;28;20203;-81
2022/09/29 02:52:06;;;;;;;0.63;0.63;;;6.40;99.90;;;;;;5071477;28;20174;-80
2022/09/29 02:54:55;;;;;;;0.70;0.70;;;6.30;99.90;;;;;;5068441;28;20572;-80
2022/09/29 02:57:26;;;;;;;0.70;0.70;;;6.30;99.90;;;;;;5050126;28;20512;-81
2022/09/29 03:00:09;;;;;;;0.70;0.70;;;6.40;99.90;;;;;;5065704;28;20171;-80
2022/09/29 03:02:37;;;;;;;0.60;0.60;;;6.60;99.90;;;;;;5064357;28;20191;-80
2022/09/29 03:05:07;;;;;;;0.70;0.70;;;6.60;99.90;;;;;;5063872;28;20172;-80
2022/09/29 03:07:33;;;;;;;0.80;0.80;;;6.60;99.90;;;;;;5064898;28;20244;-81
2022/09/29 03:09:58;;;;;;;0.60;0.60;;;6.50;99.90;;;;;;5067262;28;20199;-81
2022/09/29 03:12:24;;;;;;;0.70;0.70;;;6.50;99.90;;;;;;5065582;28;20242;-82
2022/09/29 03:14:50;;;;;;;0.60;0.60;;;6.60;99.90;;;;;;5061439;28;20171;-82
2022/09/29 03:17:15;;;;;;;0.70;0.70;;;6.50;99.90;;;;;;5065261;28;20201;-81
2022/09/29 03:19:41;;;;;;;0.70;0.70;;;6.40;99.90;;;;;;5064651;28;20575;-81
2022/09/29 03:22:06;;;;;;;0.70;0.70;;;6.40;99.90;;;;;;5061875;28;20210;-81
2022/09/29 03:24:32;;;;;;;0.60;0.60;;;6.30;99.90;;;;;;5060804;28;20175;-81
2022/09/29 03:26:57;;;;;;;0.70;0.70;;;6.20;99.90;;;;;;5060765;28;20195;-82
2022/09/29 03:29:23;;;;;;;0.60;0.60;;;6.10;99.90;;;;;;5061495;28;20608;-82
2022/09/29 03:31:48;;;;;;;0.80;0.80;;;6.10;99.90;;;;;;5066852;28;20171;-80
2022/09/29 03:34:14;;;;;;;0.70;0.70;;;6.00;99.90;;;;;;5073181;28;20183;-79
2022/09/29 03:36:43;;;;;;;0.80;0.80;;;6.00;99.90;;;;;;5072153;28;20211;-82
2022/09/29 03:39:08;;;;;;;0.70;0.70;;;6.00;99.90;;;;;;5074014;28;20210;-83
2022/09/29 03:41:34;;;;;;;0.70;0.70;;;5.90;99.90;;;;;;5073997;28;20191;-82
2022/09/29 03:43:59;;;;;;;0.70;0.70;;;5.80;99.90;;;;;;5074566;28;20168;-81
2022/09/29 03:46:25;;;;;;;0.60;0.60;;;5.80;99.90;;;;;;5067242;28;20251;-81
2022/09/29 03:48:50;;;;;;;0.70;0.70;;;5.80;99.90;;;;;;5071889;28;20206;-81
2022/09/29 03:51:16;;;;;;;0.70;0.70;;;5.80;99.90;;;;;;5083815;28;20178;-82
2022/09/29 03:53:41;;;;;;;0.70;0.70;;;5.70;99.90;;;;;;5064475;28;20171;-80
2022/09/29 03:56:07;;;;;;;0.60;0.60;;;5.60;99.90;;;;;;5065986;28;20312;-82
2022/09/29 03:58:33;;;;;;;0.60;0.60;;;5.60;99.90;;;;;;5066431;28;20206;-81
2022/09/29 04:01:00;;;;;;;0.67;0.67;;;5.50;99.90;;;;;;5068767;28;20721;-81
2022/09/29 04:03:27;;;;;;;0.70;0.70;;;5.40;99.90;;;;;;5070087;28;20176;-82
2022/09/29 04:05:52;;;;;;;0.60;0.60;;;5.30;99.90;;;;;;5070663;28;20187;-81
2022/09/29 04:08:18;;;;;;;0.63;0.63;;;5.20;99.90;;;;;;5073500;28;20568;-82
2022/09/29 04:10:46;;;;;;;0.60;0.60;;;5.30;99.90;;;;;;5073176;28;20175;-81
2022/09/29 04:13:12;;;;;;;0.70;0.70;;;5.20;99.90;;;;;;5076982;28;20163;-81
2022/09/29 04:15:37;;;;;;;0.70;0.70;;;5.20;99.90;;;;;;5078803;28;20186;-80
2022/09/29 04:18:03;;;;;;;0.60;0.60;;;5.20;99.90;;;;;;5079160;28;20191;-81
2022/09/29 04:20:29;;;;;;;0.60;0.60;;;5.20;99.90;;;;;;5078629;28;20202;-81
2022/09/29 04:22:54;;;;;;;0.60;0.60;;;5.20;99.90;;;;;;5067620;28;20175;-81
2022/09/29 04:25:20;;;;;;;0.70;0.70;;;5.20;99.90;;;;;;5068127;28;20790;-81
2022/09/29 04:27:45;;;;;;;0.60;0.60;;;5.10;99.90;;;;;;5066524;28;20591;-80
2022/09/29 04:30:11;;;;;;;0.70;0.70;;;5.10;99.90;;;;;;5068845;28;20679;-81
2022/09/29 04:32:37;;;;;;;0.60;0.60;;;5.10;99.90;;;;;;5068479;28;20683;-81
2022/09/29 04:35:03;;;;;;;0.60;0.60;;;5.10;99.90;;;;;;5068464;28;20191;-81
2022/09/29 04:37:28;;;;;;;0.70;0.70;;;5.00;99.90;;;;;;5066539;28;20581;-82
2022/09/29 04:39:54;;;;;;;0.60;0.60;;;5.10;99.90;;;;;;5067848;28;20235;-80
2022/09/29 04:42:20;;;;;;;0.60;0.60;;;5.00;99.90;;;;;;5066760;28;20250;-80
2022/09/29 04:44:46;;;;;;;0.60;0.60;;;4.90;99.90;;;;;;5068340;28;20167;-81
2022/09/29 04:47:11;;;;;;;0.70;0.70;;;4.90;99.90;;;;;;5068325;28;20174;-81
2022/09/29 04:49:37;;;;;;;0.70;0.70;;;4.90;99.90;;;;;;5083956;28;20202;-81
2022/09/29 04:52:03;;;;;;;0.60;0.60;;;5.00;99.90;;;;;;5101271;28;20177;-81
2022/09/29 04:54:33;;;;;;;0.60;0.60;;;5.00;99.90;;;;;;5109124;28;20177;-81
2022/09/29 04:57:00;;;;;;;0.70;0.70;;;5.10;99.90;;;;;;5106950;28;20245;-81
2022/09/29 04:59:26;;;;;;;0.70;0.70;;;5.20;99.90;;;;;;5106203;28;20197;-80
2022/09/29 05:01:52;;;;;;;0.70;0.70;;;5.10;99.90;;;;;;5108629;28;20260;-80
2022/09/29 05:04:18;;;;;;;0.60;0.60;;;5.20;99.90;;;;;;5110524;28;20204;-80
2022/09/29 05:06:43;;;;;;;0.70;0.70;;;5.20;99.90;;;;;;5110315;28;20250;-80
2022/09/29 05:09:09;;;;;;;0.67;0.67;;;5.30;99.90;;;;;;5109454;28;20204;-79
2022/09/29 05:11:34;;;;;;;0.63;0.63;;;5.40;99.90;;;;;;5110509;28;20305;-80
2022/09/29 05:14:00;;;;;;;0.70;0.70;;;5.30;99.90;;;;;;5110966;28;20658;-80
2022/09/29 05:16:26;;;;;;;0.70;0.70;;;5.10;99.90;;;;;;5110759;28;20203;-80
2022/09/29 05:18:51;;;;;;;0.70;0.70;;;5.00;99.90;;;;;;5109990;28;20193;-80
2022/09/29 05:21:17;;;;;;;0.70;0.70;;;5.00;99.90;;;;;;5111745;28;20206;-80
2022/09/29 05:23:43;;;;;;;0.70;0.70;;;4.90;99.90;;;;;;5112607;28;20174;-80
2022/09/29 05:26:10;;;;;;;0.70;0.70;;;4.90;99.90;;;;;;5094965;28;20181;-80
2022/09/29 05:28:37;;;;;;;0.70;0.70;;;5.20;99.90;;;;;;5111756;28;20209;-79
2022/09/29 05:31:07;;;;;;;0.70;0.70;;;5.00;99.90;;;;;;5114273;28;20174;-79
2022/09/29 05:33:34;;;;;;;0.60;0.60;;;5.00;99.90;;;;;;5111747;28;20174;-78
2022/09/29 05:35:59;;;;;;;0.70;0.70;;;5.10;99.90;;;;;;5100874;28;20174;-79
2022/09/29 05:38:25;;;;;;;0.70;0.70;;;5.10;99.90;;;;;;5097475;28;20261;-79
2022/09/29 05:40:52;;;;;;;0.63;0.63;;;5.20;99.90;;;;;;5100804;28;20190;-79
2022/09/29 05:43:18;;;;;;;0.70;0.70;;;5.40;99.90;;;;;;5100178;28;20315;-79
2022/09/29 05:45:43;;;;;;;0.80;0.80;;;5.50;99.90;;;;;;5118858;28;20277;-78
2022/09/29 05:48:09;;;;;;;0.67;0.67;;;5.50;99.90;;;;;;5118341;28;20177;-78
2022/09/29 05:50:42;;;;;;;0.63;0.63;;;5.40;99.90;;;;;;5118708;28;20154;-78
2022/09/29 05:53:08;;;;;;;0.70;0.70;;;5.40;99.90;;;;;;5118827;28;20166;-78
2022/09/29 05:55:37;;;;;;;0.60;0.60;;;5.40;99.90;;;;;;5118705;28;20166;-79
2022/09/29 05:58:06;;;;;;;0.70;0.70;;;5.60;99.90;;;;;;5117884;28;20182;-78
2022/09/29 06:00:32;;;;;;;0.60;0.60;;;5.50;99.90;;;;;;5118506;28;20194;-78
2022/09/29 06:02:59;;;;;;;0.70;0.70;;;5.50;99.90;;;;;;5118455;28;20197;-79
2022/09/29 06:05:25;;;;;;;0.70;0.70;;;5.60;99.90;;;;;;5118331;28;20211;-78
2022/09/29 06:07:51;;;;;;;0.60;0.60;;;5.60;99.90;;;;;;5117783;28;20205;-78
2022/09/29 06:10:17;;;;;;;0.90;0.90;;;5.60;99.90;;;;;;5118250;28;20166;-78
2022/09/29 06:12:43;;;;;;;0.60;0.60;;;5.70;99.90;;;;;;5118395;28;20346;-79
2022/09/29 06:15:10;;;;;;;0.70;0.70;;;5.70;99.90;;;;;;5118128;28;20167;-79
2022/09/29 06:17:35;;;;;;;0.70;0.70;;;5.80;99.90;;;;;;5090266;28;20175;-79
2022/09/29 06:20:02;;;;;;;0.70;0.70;;;5.90;99.90;;;;;;5077727;28;20189;-79
2022/09/29 06:22:28;;;;;;;0.70;0.70;;;6.00;99.90;;;;;;5077618;28;20381;-79
2022/09/29 06:24:54;;;;;;;0.70;0.70;;;6.10;99.90;;;;;;5077268;28;20178;-78
2022/09/29 06:27:20;;;;;;;0.70;0.70;;;6.20;99.90;;;;;;5077192;28;20175;-78
2022/09/29 06:29:45;;;;;;;0.70;0.70;;;6.30;99.90;;;;;;5077267;28;20187;-78
2022/09/29 06:32:11;;;;;;;0.70;0.70;;;6.40;99.90;;;;;;5077432;28;20206;-78
2022/09/29 06:37:33;;;;;;;0.80;0.80;;;6.50;99.90;;;;;;5077500;28;20201;-78
2022/09/29 06:37:34;;;;;;;0.63;0.63;;;6.70;99.90;;;;;;5077105;28;20167;-78
2022/09/29 06:40:03;;;;;;;0.73;0.73;;;6.80;99.90;;;;;;5077454;28;20193;-78
2022/09/29 06:42:29;;;;;;;0.70;0.70;;;6.80;99.90;;;;;;5077054;28;20254;-78
2022/09/29 06:44:55;;;;;;;0.60;0.60;;;6.70;99.90;;;;;;5077313;28;20167;-78
2022/09/29 06:47:20;;;;;;;0.60;0.60;;;6.80;99.90;;;;;;5076972;28;20182;-79
2022/09/29 06:49:46;;;;;;;0.60;0.60;;;6.80;99.90;;;;;;5077106;28;20221;-78
2022/09/29 06:52:11;;;;;;;0.70;0.70;;;6.90;99.90;;;;;;5077197;28;20171;-80
2022/09/29 06:54:37;;;;;;;0.60;0.60;;;7.00;99.90;;;;;;5077251;28;20191;-78
2022/09/29 06:57:02;;;;;;;0.60;0.60;;;7.10;99.90;;;;;;5077203;28;20198;-78
2022/09/29 06:59:28;;;;;;;0.70;0.70;;;7.20;99.90;;;;;;5076692;28;20194;-78
2022/09/29 07:01:53;;;;;;;0.63;0.63;;;7.20;99.90;;;;;;5077548;28;20199;-78
2022/09/29 07:04:20;;;;;;;0.60;0.60;;;7.30;99.90;;;;;;5100203;28;20231;-80
2022/09/29 07:06:46;;;;;;;0.70;0.70;;;7.40;99.90;;;;;;5097295;28;20213;-78
2022/09/29 07:09:14;;;;;;;0.70;0.70;;;7.40;99.90;;;;;;5096677;28;20186;-79
2022/09/29 07:11:45;;;;;;;0.70;0.70;;;7.40;99.90;;;;;;5097081;28;20182;-79
2022/09/29 07:14:11;;;;;;;0.70;0.70;;;7.40;99.90;;;;;;5097088;28;20242;-78
2022/09/29 07:16:37;;;;;;;0.60;0.60;;;7.40;99.90;;;;;;5096866;28;20162;-79
2022/09/29 07:19:02;;;;;;;0.83;0.83;;;7.40;99.90;;;;;;5096669;28;20194;-79
2022/09/29 07:21:28;;;;;;;0.60;0.60;;;7.30;99.90;;;;;;5095695;28;20218;-80
2022/09/29 07:23:53;;;;;;;0.63;0.63;;;7.50;99.90;;;;;;5092462;28;20178;-78
2022/09/29 07:26:19;;;;;;;0.60;0.60;;;7.70;99.90;;;;;;5076933;28;20175;-77
2022/09/29 07:28:45;;;;;;;0.70;0.70;;;7.80;99.90;;;;;;5076389;28;20179;-78
2022/09/29 07:31:16;;;;;;;0.60;0.60;;;7.60;99.90;;;;;;5076753;28;20178;-78
2022/09/29 07:33:43;;;;;;;0.60;0.60;;;7.70;99.90;;;;;;5076438;28;20164;-80
2022/09/29 07:36:09;;;;;;;0.60;0.60;;;8.00;99.90;;;;;;5076707;28;20175;-77
2022/09/29 07:38:35;;;;;;;0.80;0.80;;;8.10;99.90;;;;;;5076321;28;20259;-80
2022/09/29 07:41:02;;;;;;;0.70;0.70;;;8.20;99.90;;;;;;5076964;28;20206;-80
2022/09/29 07:43:28;;;;;;;0.50;0.50;;;8.40;99.90;;;;;;5097552;28;20245;-78
2022/09/29 07:45:54;;;;;;;0.70;0.70;;;8.50;99.90;;;;;;5084839;28;20171;-79
2022/09/29 07:48:19;;;;;;;0.70;0.70;;;8.50;99.90;;;;;;5083200;28;20190;-80
2022/09/29 07:50:45;;;;;;;0.60;0.60;;;8.50;99.90;;;;;;5100010;28;20249;-80
2022/09/29 07:53:12;;;;;;;0.70;0.70;;;8.50;99.90;;;;;;5082544;28;20170;-81
2022/09/29 07:55:38;;;;;;;0.70;0.70;;;8.60;99.90;;;;;;5095807;28;20170;-80
2022/09/29 07:58:04;;;;;;;0.60;0.60;;;8.70;99.90;;;;;;5089857;28;20213;-79
2022/09/29 08:00:30;;;;;;;0.60;0.60;;;8.80;99.90;;;;;;5095477;28;20174;-80
2022/09/29 08:03:02;;;;;;;0.70;0.70;;;8.80;99.90;;;;;;5090531;28;20190;-80
2022/09/29 08:05:30;;;;;;;0.70;0.70;;;8.80;99.90;;;;;;5100088;28;20171;-80
2022/09/29 08:07:56;;;;;;;0.60;0.60;;;8.80;99.90;;;;;;5097393;28;20214;-80
2022/09/29 08:10:22;;;;;;;0.70;0.70;;;8.90;99.90;;;;;;5090953;28;20174;-80
2022/09/29 08:12:47;;;;;;;0.60;0.60;;;9.10;99.90;;;;;;5098904;28;20185;-81
2022/09/29 08:15:13;;;;;;;0.63;0.63;;;9.20;99.90;;;;;;5099325;28;20178;-80
2022/09/29 08:17:38;;;;;;;0.60;0.60;;;9.20;99.90;;;;;;5098739;28;20166;-80
2022/09/29 08:20:04;;;;;;;0.60;0.60;;;9.30;99.90;;;;;;5099369;28;20182;-80
2022/09/29 08:22:30;;;;;;;0.60;0.60;;;9.50;99.90;;;;;;5098986;28;20202;-80
2022/09/29 08:24:56;;;;;;;0.57;0.57;;;9.60;99.90;;;;;;5099938;28;20226;-80
2022/09/29 08:27:22;;;;;;;0.60;0.60;;;9.80;99.90;;;;;;5099828;28;20202;-80
2022/09/29 08:29:47;;;;;;;0.50;0.50;;;10.20;99.90;;;;;;5099538;28;20244;-80
2022/09/29 08:32:13;;;;;;;0.43;0.43;;;10.30;88.20;;;;;;5100054;28;20189;-80
2022/09/29 08:34:39;;;;;;;0.57;0.57;;;10.70;35.50;;;;;;5099908;28;20246;-80
2022/09/29 08:37:04;;;;;;;0.50;0.50;;;10.60;1.00;;;;;;5099779;28;20181;-80
2022/09/29 08:39:31;;;;;;;0.60;0.60;;;10.50;72.60;;;;;;5099269;28;20206;-80
2022/09/29 08:42:21;;;;;;;0.43;0.43;;;10.60;53.60;;;;;;5099657;28;20201;-80
2022/09/29 08:44:57;;;;;;;0.50;0.50;;;10.50;45.80;;;;;;5099571;28;20178;-79
2022/09/29 08:47:34;;;;;;;0.50;0.50;;;10.60;24.10;;;;;;5099272;28;20158;-81
2022/09/29 08:50:05;;;;;;;0.60;0.60;;;10.90;1.00;;;;;;5099594;28;20193;-80
2022/09/29 08:52:39;;;;;;;0.60;0.60;;;11.00;1.00;;;;;;5098459;28;20198;-80
2022/09/29 08:55:17;;;;;;;0.50;0.50;;;11.50;1.00;;;;;;5099333;28;20166;-80
2022/09/29 08:57:46;;;;;;;0.47;0.47;;;12.00;1.00;;;;;;5099104;28;20241;-80
2022/09/29 09:00:15;;;;;;;0.50;0.50;;;12.40;99.90;;;;;;5099317;28;20178;-80
2022/09/29 09:03:09;;;;;;;0.50;0.50;;;12.80;1.00;;;;;;5099249;28;20206;-79
2022/09/29 09:06:02;;;;;;;0.40;0.40;;;13.20;1.00;;;;;;5099366;28;20179;-79
2022/09/29 09:09:08;;;;;;;0.50;0.50;;;13.40;70.10;;;;;;5098955;28;20273;-80
2022/09/29 09:11:50;;;;;;;0.40;0.40;;;13.40;99.90;;;;;;5094368;28;20246;-81
2022/09/29 09:14:22;;;;;;;0.50;0.50;;;13.30;1.00;;;;;;5103484;28;20193;-82
2022/09/29 09:17:29;;;;;;;0.50;0.50;;;13.20;1.00;;;;;;5081464;28;20200;-80
2022/09/29 09:20:21;;;;;;;0.40;0.40;;;13.10;99.90;;;;;;5096992;28;20177;-82
2022/09/29 09:23:16;;;;;;;0.40;0.40;;;12.90;1.00;;;;;;5101537;28;20181;-80
2022/09/29 09:25:54;;;;;;;0.50;0.50;;;12.70;1.00;;;;;;5101287;28;20163;-80
2022/09/29 09:28:33;;;;;;;0.50;0.50;;;12.60;99.90;;;;;;5098072;28;20309;-80
2022/09/29 09:31:09;;;;;;;0.40;0.40;;;12.50;99.90;;;;;;5096370;28;20173;-80
2022/09/29 09:33:53;;;;;;;0.50;0.50;;;12.20;1.00;;;;;;5095935;28;20185;-81
2022/09/29 09:36:27;;;;;;;0.40;0.40;;;12.00;99.90;;;;;;5096489;28;20175;-81
2022/09/29 09:39:03;;;;;;;0.50;0.50;;;12.10;99.90;;;;;;5096200;28;20186;-80
2022/09/29 09:41:30;;;;;;;0.40;0.40;;;12.10;99.90;;;;;;5095956;28;20263;-80
2022/09/29 09:44:02;;;;;;;0.40;0.40;;;11.90;1.00;;;;;;5094780;28;20178;-81
2022/09/29 09:46:41;;;;;;;0.50;0.50;;;12.00;1.00;;;;;;5093753;28;20178;-81
2022/09/29 09:49:34;;;;;;;0.60;0.60;;;12.10;1.00;;;;;;5092497;28;20240;-81
2022/09/29 09:52:08;;;;;;;0.50;0.50;;;12.00;99.90;;;;;;5093173;28;20197;-81
2022/09/29 09:54:39;;;;;;;0.40;0.40;;;12.30;1.00;;;;;;5093426;28;20167;-81
2022/09/29 09:57:39;;;;;;;0.50;0.50;;;12.30;1.00;;;;;;5093268;28;20182;-81
2022/09/29 10:00:09;;;;;;;0.50;0.50;;;12.20;99.90;;;;;;5092806;28;20190;-81
2022/09/29 10:02:40;;;;;;;0.40;0.40;;;12.60;1.00;;;;;;5093124;28;20217;-81
2022/09/29 10:05:11;;;;;;;0.40;0.40;;;13.20;70.90;;;;;;5091969;28;20201;-82
2022/09/29 10:07:37;;;;;;;0.40;0.40;;;13.30;1.00;;;;;;5092257;28;20167;-81
2022/09/29 10:10:12;;;;;;;0.50;0.50;;;13.30;33.40;;;;;;5092763;28;20162;-81
2022/09/29 10:12:38;;;;;;;0.50;0.50;;;13.50;1.00;;;;;;5093085;28;20178;-82
2022/09/29 10:15:14;;;;;;;0.40;0.40;;;13.40;99.90;;;;;;5092489;28;20253;-81
2022/09/29 10:17:45;;;;;;;0.40;0.40;;;13.40;1.00;;;;;;5091279;28;20198;-82
2022/09/29 10:20:11;;;;;;;0.50;0.50;;;13.70;99.90;;;;;;5090479;28;20174;-82
2022/09/29 10:22:37;;;;;;;0.40;0.40;;;13.80;99.90;;;;;;5088729;28;20309;-81
2022/09/29 10:25:18;;;;;;;0.50;0.50;;;13.80;1.00;;;;;;5090604;28;20175;-81
2022/09/29 10:27:50;;;;;;;0.50;0.50;;;13.70;1.00;;;;;;5089611;28;20239;-81
2022/09/29 10:30:23;;;;;;;0.30;0.30;;;13.60;1.00;;;;;;5089446;28;20175;-81
2022/09/29 10:32:56;;;;;;;0.40;0.40;;;13.40;1.00;;;;;;5090196;28;20186;-81
2022/09/29 10:35:26;;;;;;;0.40;0.40;;;13.50;1.00;;;;;;5088908;28;20170;-81
2022/09/29 10:38:06;;;;;;;0.30;0.30;;;13.60;1.00;;;;;;5088034;28;20195;-81
2022/09/29 10:40:32;;;;;;;0.50;0.50;;;13.40;1.00;;;;;;5087714;28;20198;-81
2022/09/29 10:43:14;;;;;;;0.30;0.30;;;13.60;99.90;;;;;;5091243;28;20182;-81
2022/09/29 10:45:48;;;;;;;0.40;0.40;;;13.60;1.00;;;;;;5093801;28;20222;-80
2022/09/29 10:48:13;;;;;;;0.40;0.40;;;13.50;1.00;;;;;;5092634;28;20285;-80
2022/09/29 10:51:02;;;;;;;0.50;0.50;;;13.40;1.00;;;;;;5092111;28;20185;-80
2022/09/29 10:53:33;;;;;;;0.47;0.47;;;13.30;32.90;;;;;;5092630;28;20186;-80
2022/09/29 10:56:13;;;;;;;0.47;0.47;;;13.30;1.00;;;;;;5092408;28;20197;-80
2022/09/29 10:58:42;;;;;;;0.50;0.50;;;13.60;99.90;;;;;;5092764;28;20198;-80
2022/09/29 11:01:13;;;;;;;0.50;0.50;;;13.60;99.90;;;;;;5091549;28;20240;-80
2022/09/29 11:03:48;;;;;;;0.40;0.40;;;13.80;1.00;;;;;;5095006;28;20242;-79
2022/09/29 11:06:16;;;;;;;0.50;0.50;;;13.80;1.00;;;;;;5094962;28;20165;-80
2022/09/29 11:09:16;;;;;;;0.40;0.40;;;14.00;1.00;;;;;;5094179;28;20200;-79
2022/09/29 11:11:47;;;;;;;0.50;0.50;;;14.30;99.90;;;;;;5074939;28;20171;-80
2022/09/29 11:14:35;;;;;;;0.50;0.50;;;14.60;99.90;;;;;;5095064;28;20186;-81
2022/09/29 11:17:18;;;;;;;0.50;0.50;;;15.60;1.00;;;;;;5090241;28;20204;-80
2022/09/29 11:19:43;;;;;;;0.50;0.50;;;16.20;1.00;;;;;;5091180;28;20190;-80
2022/09/29 11:22:17;;;;;;;0.40;0.40;;;16.40;1.00;;;;;;5092141;28;20244;-80
2022/09/29 11:24:58;;;;;;;0.30;0.30;;;16.30;1.00;;;;;;5090698;28;20186;-80
2022/09/29 11:28:03;;;;;;;0.30;0.30;;;16.70;1.00;;;;;;5089813;28;20203;-80
2022/09/29 11:31:10;;;;;;;0.40;0.40;;;16.40;1.00;;;;;;5081908;28;20182;-80
2022/09/29 11:34:00;;;;;;;0.40;0.40;;;16.50;1.00;;;;;;5089200;28;20178;-80
2022/09/29 11:36:41;;;;;;;0.40;0.40;;;15.80;1.00;;;;;;5090908;28;20336;-80
2022/09/29 11:39:35;;;;;;;0.40;0.40;;;15.80;1.00;;;;;;5088794;28;20247;-81
2022/09/29 11:42:22;;;;;;;0.33;0.33;;;16.20;1.00;;;;;;5088885;28;20238;-82
2022/09/29 11:45:02;;;;;;;0.40;0.40;;;16.40;1.00;;;;;;5086422;28;20187;-80
2022/09/29 11:48:18;;;;;;;0.40;0.40;;;16.70;1.00;;;;;;5085538;28;20174;-82
2022/09/29 11:51:00;;;;;;;0.30;0.30;;;17.70;1.00;;;;;;5064743;28;20267;-80
2022/09/29 11:54:02;;;;;;;0.30;0.30;;;16.60;1.00;;;;;;5072157;28;20194;-81
2022/09/29 11:57:17;;;;;;;0.30;0.30;;;16.70;1.00;;;;;;5082670;28;20178;-80
2022/09/29 12:00:11;;;;;;;0.40;0.40;;;16.10;1.00;;;;;;5036316;28;20604;-82
2022/09/29 12:03:15;;;;;;;0.40;0.40;;;15.60;1.00;;;;;;5041391;28;20251;-81
2022/09/29 12:06:18;;;;;;;0.40;0.40;;;15.70;1.00;;;;;;5083078;28;20277;-81
2022/09/29 12:08:46;;;;;;;0.30;0.30;;;16.00;1.00;;;;;;5083246;28;20202;-81
2022/09/29 12:11:30;;;;;;;0.40;0.40;;;17.50;1.00;;;;;;5086620;28;20187;-80
2022/09/29 12:14:23;;;;;;;0.40;0.40;;;17.60;1.00;;;;;;5085826;28;20194;-80
2022/09/29 12:17:01;;;;;;;0.30;0.30;;;17.60;1.00;;;;;;5083450;28;20166;-81
2022/09/29 12:19:30;;;;;;;0.40;0.40;;;18.50;1.00;;;;;;5080867;28;20190;-81
2022/09/29 12:22:00;;;;;;;0.40;0.40;;;19.20;1.00;;;;;;5082640;28;20237;-80
2022/09/29 12:24:49;;;;;;;0.30;0.30;;;17.80;1.00;;;;;;5080483;28;20189;-82
2022/09/29 12:27:29;;;;;;;0.40;0.40;;;17.00;1.00;;;;;;5085073;28;20182;-82
2022/09/29 12:30:12;;;;;;;0.40;0.40;;;17.00;1.00;;;;;;5087724;28;20185;-82
2022/09/29 12:32:43;;;;;;;0.40;0.40;;;16.80;1.00;;;;;;5087222;28;20175;-82
2022/09/29 12:35:17;;;;;;;0.33;0.33;;;17.10;1.00;;;;;;5087340;28;20266;-81
2022/09/29 12:38:00;;;;;;;0.40;0.40;;;17.00;1.00;;;;;;5069172;28;20184;-80
2022/09/29 12:40:42;;;;;;;0.30;0.30;;;16.90;1.00;;;;;;5065944;28;20247;-79
2022/09/29 12:43:40;;;;;;;0.30;0.30;;;18.50;1.00;;;;;;5058647;28;20179;-80
2022/09/29 12:46:10;;;;;;;0.50;0.50;;;18.70;1.00;;;;;;5021660;28;20477;-79
2022/09/29 12:49:00;;;;;;;0.40;0.40;;;18.10;1.00;;;;;;5076799;28;20190;-80
2022/09/29 12:51:36;;;;;;;0.40;0.40;;;16.80;1.00;;;;;;5075698;28;20202;-81
2022/09/29 12:54:33;;;;;;;0.40;0.40;;;16.80;1.00;;;;;;5074408;28;20261;-82
2022/09/29 12:57:06;;;;;;;0.40;0.40;;;16.30;1.00;;;;;;5089328;28;20179;-81
2022/09/29 12:59:37;;;;;;;0.40;0.40;;;16.70;1.00;;;;;;5083294;28;20202;-82
2022/09/29 13:02:21;;;;;;;0.37;0.37;;;16.90;1.00;;;;;;5088404;28;20247;-81
2022/09/29 13:05:05;;;;;;;0.50;0.50;;;16.80;1.00;;;;;;5084220;28;20174;-82
2022/09/29 13:07:51;;;;;;;0.50;0.50;;;16.50;1.00;;;;;;5086536;28;20191;-81
2022/09/29 13:10:26;;;;;;;0.40;0.40;;;16.60;1.00;;;;;;5089153;28;20189;-81
2022/09/29 13:13:27;;;;;;;0.50;0.50;;;15.90;1.00;;;;;;5088218;28;20185;-80
2022/09/29 13:16:27;;;;;;;0.50;0.50;;;15.70;1.00;;;;;;5101880;28;20170;-81
2022/09/29 13:19:31;;;;;;;0.50;0.50;;;16.40;1.00;;;;;;5103725;28;20201;-81
2022/09/29 13:22:07;;;;;;;0.50;0.50;;;16.00;1.00;;;;;;5103187;28;20265;-81
2022/09/29 13:24:35;;;;;;;0.50;0.50;;;15.70;1.00;;;;;;5090104;28;20174;-81
2022/09/29 13:27:29;;;;;;;0.57;0.57;;;15.80;1.00;;;;;;5089021;28;20305;-82